sensor_id;sensor_type;location;lat;lon;timestamp;pressure;altitude;pressure_sealevel;temperature;humidity
5455;BME280;2750;49.050;9.250;2023-02-03T00:01:36;99974.28;;;8.31;89.92
5455;BME280;2750;49.050;9.250;2023-02-03T00:06:37;100007.78;;;8.36;90.61
5455;BME280;2750;49.050;9.250;2023-02-03T00:11:40;100017.13;;;8.44;91.12
5455;BME280;2750;49.050;9.250;2023-02-03T00:16:42;99993.66;;;8.55;90.15
5455;BME280;2750;49.050;9.250;2023-02-03T00:21:43;99996.44;;;8.44;90.62
5455;BME280;2750;49.050;9.250;2023-02-03T00:26:46;100005.53;;;8.65;89.89
5455;BME280;2750;49.050;9.250;2023-02-03T00:31:48;100013.22;;;8.70;90.10
5455;BME280;2750;49.050;9.250;2023-02-03T00:36:49;100030.78;;;8.51;90.73
5455;BME280;2750;49.050;9.250;2023-02-03T00:41:52;100030.94;;;8.43;91.28
5455;BME280;2750;49.050;9.250;2023-02-03T00:46:53;100016.06;;;8.56;90.93
5455;BME280;2750;49.050;9.250;2023-02-03T00:51:55;100003.59;;;8.76;89.97
5455;BME280;2750;49.050;9.250;2023-02-03T00:56:58;100036.53;;;8.67;91.00
5455;BME280;2750;49.050;9.250;2023-02-03T01:01:59;100020.94;;;8.71;89.63
5455;BME280;2750;49.050;9.250;2023-02-03T01:07:01;99975.31;;;9.08;89.44
5455;BME280;2750;49.050;9.250;2023-02-03T01:12:04;99977.50;;;8.88;89.91
5455;BME280;2750;49.050;9.250;2023-02-03T01:17:07;99981.97;;;8.79;90.44
5455;BME280;2750;49.050;9.250;2023-02-03T01:22:08;99997.28;;;8.46;91.01
5455;BME280;2750;49.050;9.250;2023-02-03T01:27:11;99986.00;;;8.93;90.10
5455;BME280;2750;49.050;9.250;2023-02-03T01:32:13;99982.78;;;8.82;89.78
5455;BME280;2750;49.050;9.250;2023-02-03T01:37:14;99976.41;;;8.55;90.51
5455;BME280;2750;49.050;9.250;2023-02-03T01:42:18;99981.91;;;8.83;89.89
5455;BME280;2750;49.050;9.250;2023-02-03T01:47:28;99990.81;;;8.69;91.17
5455;BME280;2750;49.050;9.250;2023-02-03T01:52:31;99987.13;;;8.80;91.13
5455;BME280;2750;49.050;9.250;2023-02-03T01:57:37;99976.03;;;8.29;92.60
5455;BME280;2750;49.050;9.250;2023-02-03T02:02:42;99954.28;;;8.41;92.72
5455;BME280;2750;49.050;9.250;2023-02-03T02:07:45;99937.66;;;8.52;91.87
5455;BME280;2750;49.050;9.250;2023-02-03T02:12:49;99909.13;;;8.57;91.96
5455;BME280;2750;49.050;9.250;2023-02-03T02:18:06;99928.19;;;8.53;92.41
5455;BME280;2750;49.050;9.250;2023-02-03T02:34:39;99905.50;;;8.66;91.98
5455;BME280;2750;49.050;9.250;2023-02-03T02:39:50;99914.84;;;8.30;92.76
5455;BME280;2750;49.050;9.250;2023-02-03T02:44:58;99877.25;;;8.10;93.42
5455;BME280;2750;49.050;9.250;2023-02-03T02:50:09;99903.66;;;8.26;93.77
5455;BME280;2750;49.050;9.250;2023-02-03T02:55:17;99888.84;;;8.36;93.79
5455;BME280;2750;49.050;9.250;2023-02-03T03:00:23;99894.72;;;8.45;93.24
5455;BME280;2750;49.050;9.250;2023-02-03T03:05:27;99893.06;;;8.41;92.74
5455;BME280;2750;49.050;9.250;2023-02-03T03:10:30;99884.13;;;8.57;92.41
5455;BME280;2750;49.050;9.250;2023-02-03T03:15:33;99872.19;;;8.50;92.23
5455;BME280;2750;49.050;9.250;2023-02-03T03:20:40;99899.75;;;8.51;92.19
5455;BME280;2750;49.050;9.250;2023-02-03T03:25:46;99904.66;;;8.63;91.94
5455;BME280;2750;49.050;9.250;2023-02-03T03:30:49;99921.44;;;8.46;92.68
5455;BME280;2750;49.050;9.250;2023-02-03T03:36:00;99933.34;;;8.53;92.13
5455;BME280;2750;49.050;9.250;2023-02-03T03:41:05;99950.59;;;8.54;91.92
5455;BME280;2750;49.050;9.250;2023-02-03T03:46:12;99963.59;;;8.48;92.44
5455;BME280;2750;49.050;9.250;2023-02-03T03:51:18;99975.19;;;8.26;94.24
5455;BME280;2750;49.050;9.250;2023-02-03T03:56:26;99961.75;;;8.08;94.98
5455;BME280;2750;49.050;9.250;2023-02-03T04:01:29;99967.50;;;8.23;94.86
5455;BME280;2750;49.050;9.250;2023-02-03T04:06:33;99962.22;;;8.30;94.36
5455;BME280;2750;49.050;9.250;2023-02-03T04:11:35;99950.88;;;8.37;93.76
5455;BME280;2750;49.050;9.250;2023-02-03T04:16:54;99957.84;;;8.34;94.45
5455;BME280;2750;49.050;9.250;2023-02-03T04:21:57;99955.25;;;8.35;94.33
5455;BME280;2750;49.050;9.250;2023-02-03T04:26:59;99961.88;;;8.50;93.43
5455;BME280;2750;49.050;9.250;2023-02-03T04:32:00;99968.47;;;8.64;93.54
5455;BME280;2750;49.050;9.250;2023-02-03T04:37:03;99954.72;;;8.13;95.72
5455;BME280;2750;49.050;9.250;2023-02-03T04:42:04;99951.75;;;8.36;96.09
5455;BME280;2750;49.050;9.250;2023-02-03T04:47:06;99928.22;;;8.02;97.93
5455;BME280;2750;49.050;9.250;2023-02-03T04:52:10;99937.69;;;8.03;98.28
5455;BME280;2750;49.050;9.250;2023-02-03T04:57:11;99936.63;;;8.15;97.70
5455;BME280;2750;49.050;9.250;2023-02-03T05:02:13;99958.16;;;8.15;98.52
5455;BME280;2750;49.050;9.250;2023-02-03T05:07:16;99969.94;;;8.32;97.75
5455;BME280;2750;49.050;9.250;2023-02-03T05:12:17;99963.94;;;8.31;97.79
5455;BME280;2750;49.050;9.250;2023-02-03T05:17:19;99967.09;;;8.47;97.22
5455;BME280;2750;49.050;9.250;2023-02-03T05:22:22;99953.88;;;8.14;98.38
5455;BME280;2750;49.050;9.250;2023-02-03T05:27:23;99961.94;;;7.96;100.00
5455;BME280;2750;49.050;9.250;2023-02-03T05:32:25;99968.91;;;7.90;100.00
5455;BME280;2750;49.050;9.250;2023-02-03T05:37:27;99963.84;;;7.85;100.00
5455;BME280;2750;49.050;9.250;2023-02-03T05:42:29;99951.69;;;7.90;100.00
5455;BME280;2750;49.050;9.250;2023-02-03T05:47:30;99939.16;;;7.67;100.00
5455;BME280;2750;49.050;9.250;2023-02-03T05:52:33;99941.72;;;7.69;100.00
5455;BME280;2750;49.050;9.250;2023-02-03T05:57:35;99938.94;;;7.81;100.00
5455;BME280;2750;49.050;9.250;2023-02-03T06:02:36;99941.53;;;7.81;100.00
5455;BME280;2750;49.050;9.250;2023-02-03T06:07:39;99931.66;;;8.04;100.00
5455;BME280;2750;49.050;9.250;2023-02-03T06:12:41;99951.75;;;7.87;100.00
5455;BME280;2750;49.050;9.250;2023-02-03T06:17:43;99942.41;;;7.79;100.00
5455;BME280;2750;49.050;9.250;2023-02-03T06:22:46;99933.84;;;7.77;100.00
5455;BME280;2750;49.050;9.250;2023-02-03T06:27:48;99923.25;;;7.92;100.00
5455;BME280;2750;49.050;9.250;2023-02-03T06:32:49;99906.84;;;7.94;100.00
5455;BME280;2750;49.050;9.250;2023-02-03T06:37:52;99908.94;;;7.74;100.00
5455;BME280;2750;49.050;9.250;2023-02-03T06:42:54;99890.13;;;7.66;100.00
5455;BME280;2750;49.050;9.250;2023-02-03T06:47:55;99902.88;;;7.75;100.00
5455;BME280;2750;49.050;9.250;2023-02-03T06:52:58;99912.28;;;7.79;100.00
5455;BME280;2750;49.050;9.250;2023-02-03T06:58:00;99907.91;;;7.83;100.00
5455;BME280;2750;49.050;9.250;2023-02-03T07:03:01;99899.25;;;7.85;100.00
5455;BME280;2750;49.050;9.250;2023-02-03T07:08:04;99906.25;;;7.79;100.00
5455;BME280;2750;49.050;9.250;2023-02-03T07:13:06;99920.94;;;7.77;100.00
5455;BME280;2750;49.050;9.250;2023-02-03T07:18:08;99894.94;;;7.86;100.00
5455;BME280;2750;49.050;9.250;2023-02-03T07:23:11;99913.13;;;7.81;100.00
5455;BME280;2750;49.050;9.250;2023-02-03T07:28:12;99910.53;;;7.81;100.00
5455;BME280;2750;49.050;9.250;2023-02-03T07:33:14;99933.72;;;7.83;100.00
5455;BME280;2750;49.050;9.250;2023-02-03T07:38:16;99952.47;;;7.97;100.00
5455;BME280;2750;49.050;9.250;2023-02-03T07:43:18;99967.00;;;8.02;100.00
5455;BME280;2750;49.050;9.250;2023-02-03T07:48:20;99947.69;;;7.71;100.00
5455;BME280;2750;49.050;9.250;2023-02-03T07:53:23;99963.63;;;7.97;100.00
5455;BME280;2750;49.050;9.250;2023-02-03T07:58:24;99944.31;;;7.69;100.00
5455;BME280;2750;49.050;9.250;2023-02-03T08:03:26;99983.38;;;8.01;100.00
5455;BME280;2750;49.050;9.250;2023-02-03T08:08:30;99967.63;;;8.15;100.00
5455;BME280;2750;49.050;9.250;2023-02-03T08:13:31;99981.44;;;8.14;100.00
5455;BME280;2750;49.050;9.250;2023-02-03T08:18:33;99988.88;;;8.34;100.00
5455;BME280;2750;49.050;9.250;2023-02-03T08:23:35;99973.06;;;8.00;100.00
5455;BME280;2750;49.050;9.250;2023-02-03T08:28:37;99965.06;;;8.13;100.00
5455;BME280;2750;49.050;9.250;2023-02-03T08:33:38;99988.31;;;8.15;100.00
5455;BME280;2750;49.050;9.250;2023-02-03T08:38:41;99984.06;;;8.12;100.00
5455;BME280;2750;49.050;9.250;2023-02-03T08:43:43;99954.91;;;8.04;100.00
5455;BME280;2750;49.050;9.250;2023-02-03T08:48:45;99945.66;;;7.90;100.00
5455;BME280;2750;49.050;9.250;2023-02-03T08:53:48;99978.19;;;8.01;100.00
5455;BME280;2750;49.050;9.250;2023-02-03T08:58:49;99953.28;;;7.99;100.00
5455;BME280;2750;49.050;9.250;2023-02-03T09:03:51;99956.19;;;8.30;100.00
5455;BME280;2750;49.050;9.250;2023-02-03T09:08:53;99951.69;;;7.90;100.00
5455;BME280;2750;49.050;9.250;2023-02-03T09:13:55;99957.84;;;8.34;100.00
5455;BME280;2750;49.050;9.250;2023-02-03T09:18:57;99962.09;;;8.38;100.00
5455;BME280;2750;49.050;9.250;2023-02-03T09:24:00;99970.50;;;8.47;100.00
5455;BME280;2750;49.050;9.250;2023-02-03T09:29:02;99975.16;;;8.29;100.00
5455;BME280;2750;49.050;9.250;2023-02-03T09:34:04;99960.09;;;8.01;100.00
5455;BME280;2750;49.050;9.250;2023-02-03T09:39:07;99953.00;;;8.15;100.00
5455;BME280;2750;49.050;9.250;2023-02-03T09:44:12;99951.03;;;8.30;100.00
5455;BME280;2750;49.050;9.250;2023-02-03T09:49:22;99950.97;;;8.33;100.00
5455;BME280;2750;49.050;9.250;2023-02-03T09:54:33;99946.41;;;8.47;100.00
5455;BME280;2750;49.050;9.250;2023-02-03T09:59:38;99930.03;;;8.46;100.00
5455;BME280;2750;49.050;9.250;2023-02-03T10:04:43;99949.63;;;8.58;100.00
5455;BME280;2750;49.050;9.250;2023-02-03T10:09:58;99952.56;;;8.40;100.00
5455;BME280;2750;49.050;9.250;2023-02-03T10:20:45;99950.75;;;8.45;100.00
5455;BME280;2750;49.050;9.250;2023-02-03T10:25:50;99966.38;;;8.82;100.00
5455;BME280;2750;49.050;9.250;2023-02-03T10:30:56;99949.75;;;8.93;99.51
5455;BME280;2750;49.050;9.250;2023-02-03T10:36:03;99957.09;;;8.73;100.00
5455;BME280;2750;49.050;9.250;2023-02-03T10:41:09;99957.97;;;9.13;99.27
5455;BME280;2750;49.050;9.250;2023-02-03T10:46:10;99953.56;;;8.77;99.51
5455;BME280;2750;49.050;9.250;2023-02-03T10:51:20;99949.69;;;8.55;99.55
5455;BME280;2750;49.050;9.250;2023-02-03T10:56:25;99937.19;;;8.75;99.13
5455;BME280;2750;49.050;9.250;2023-02-03T11:01:38;99920.88;;;8.73;100.00
5455;BME280;2750;49.050;9.250;2023-02-03T11:06:53;99919.88;;;8.79;98.92
5455;BME280;2750;49.050;9.250;2023-02-03T11:12:07;99925.91;;;8.79;99.10
5455;BME280;2750;49.050;9.250;2023-02-03T11:17:15;99936.06;;;8.47;100.00
5455;BME280;2750;49.050;9.250;2023-02-03T11:22:28;99941.75;;;8.62;100.00
5455;BME280;2750;49.050;9.250;2023-02-03T11:27:31;99934.13;;;8.56;100.00
5455;BME280;2750;49.050;9.250;2023-02-03T11:32:35;99928.72;;;8.69;100.00
5455;BME280;2750;49.050;9.250;2023-02-03T11:37:40;99886.88;;;8.50;99.34
5455;BME280;2750;49.050;9.250;2023-02-03T11:42:45;99883.72;;;8.76;97.74
5455;BME280;2750;49.050;9.250;2023-02-03T11:48:00;99882.13;;;9.08;96.02
5455;BME280;2750;49.050;9.250;2023-02-03T11:53:11;99876.50;;;8.90;96.06
5455;BME280;2750;49.050;9.250;2023-02-03T11:58:52;99866.91;;;8.96;94.90
5455;BME280;2750;49.050;9.250;2023-02-03T12:04:09;99863.75;;;8.82;96.03
5455;BME280;2750;49.050;9.250;2023-02-03T12:09:27;99865.38;;;8.86;95.84
5455;BME280;2750;49.050;9.250;2023-02-03T12:14:46;99868.75;;;8.90;94.94
5455;BME280;2750;49.050;9.250;2023-02-03T12:20:12;99865.31;;;8.89;94.57
5455;BME280;2750;49.050;9.250;2023-02-03T12:25:28;99841.63;;;9.07;93.81
5455;BME280;2750;49.050;9.250;2023-02-03T12:30:37;99816.69;;;9.03;94.37
5455;BME280;2750;49.050;9.250;2023-02-03T12:35:44;99817.13;;;8.85;94.67
5455;BME280;2750;49.050;9.250;2023-02-03T12:40:52;99814.22;;;8.97;93.84
5455;BME280;2750;49.050;9.250;2023-02-03T12:45:58;99781.28;;;8.67;95.30
5455;BME280;2750;49.050;9.250;2023-02-03T12:51:05;99807.16;;;8.67;95.75
5455;BME280;2750;49.050;9.250;2023-02-03T12:56:11;99809.81;;;8.64;94.91
5455;BME280;2750;49.050;9.250;2023-02-03T13:01:19;99829.63;;;8.65;95.13
5455;BME280;2750;49.050;9.250;2023-02-03T13:06:26;99812.25;;;8.70;94.33
5455;BME280;2750;49.050;9.250;2023-02-03T13:11:35;99800.50;;;8.57;95.75
5455;BME280;2750;49.050;9.250;2023-02-03T13:16:43;99788.78;;;8.79;95.96
5455;BME280;2750;49.050;9.250;2023-02-03T13:21:48;99773.75;;;8.93;94.79
5455;BME280;2750;49.050;9.250;2023-02-03T13:27:05;99767.19;;;8.80;95.60
5455;BME280;2750;49.050;9.250;2023-02-03T13:32:20;99767.22;;;8.79;96.29
5455;BME280;2750;49.050;9.250;2023-02-03T13:37:45;99742.19;;;8.81;95.96
5455;BME280;2750;49.050;9.250;2023-02-03T13:42:57;99723.28;;;8.77;94.75
5455;BME280;2750;49.050;9.250;2023-02-03T13:48:07;99741.41;;;8.77;95.51
5455;BME280;2750;49.050;9.250;2023-02-03T13:53:15;99756.41;;;8.98;95.46
5455;BME280;2750;49.050;9.250;2023-02-03T13:58:22;99750.47;;;8.93;95.03
5455;BME280;2750;49.050;9.250;2023-02-03T14:03:40;99745.97;;;9.01;95.62
5455;BME280;2750;49.050;9.250;2023-02-03T14:08:47;99744.81;;;9.13;95.02
5455;BME280;2750;49.050;9.250;2023-02-03T14:13:52;99755.41;;;9.04;93.99
5455;BME280;2750;49.050;9.250;2023-02-03T14:18:54;99749.31;;;9.06;94.33
5455;BME280;2750;49.050;9.250;2023-02-03T14:24:03;99728.59;;;9.06;93.94
5455;BME280;2750;49.050;9.250;2023-02-03T14:29:08;99740.56;;;9.10;93.73
5455;BME280;2750;49.050;9.250;2023-02-03T14:34:11;99756.84;;;9.16;93.45
5455;BME280;2750;49.050;9.250;2023-02-03T14:45:07;99784.94;;;9.31;93.10
5455;BME280;2750;49.050;9.250;2023-02-03T14:50:21;99779.59;;;9.37;93.41
5455;BME280;2750;49.050;9.250;2023-02-03T14:55:41;99791.00;;;9.30;93.35
5455;BME280;2750;49.050;9.250;2023-02-03T15:00:47;99782.75;;;9.14;93.53
5455;BME280;2750;49.050;9.250;2023-02-03T15:05:54;99779.56;;;9.04;93.13
5455;BME280;2750;49.050;9.250;2023-02-03T15:10:56;99784.59;;;9.09;94.28
5455;BME280;2750;49.050;9.250;2023-02-03T15:16:01;99793.59;;;8.94;93.89
5455;BME280;2750;49.050;9.250;2023-02-03T15:21:03;99789.47;;;8.86;95.80
5455;BME280;2750;49.050;9.250;2023-02-03T15:26:11;99774.78;;;8.88;97.54
5455;BME280;2750;49.050;9.250;2023-02-03T15:31:18;99788.97;;;8.70;99.65
5455;BME280;2750;49.050;9.250;2023-02-03T15:36:25;99783.84;;;8.69;99.52
5455;BME280;2750;49.050;9.250;2023-02-03T15:41:27;99763.78;;;8.41;100.00
5455;BME280;2750;49.050;9.250;2023-02-03T15:46:34;99786.56;;;8.23;100.00
5455;BME280;2750;49.050;9.250;2023-02-03T15:51:40;99794.47;;;8.15;100.00
5455;BME280;2750;49.050;9.250;2023-02-03T15:56:46;99809.59;;;8.35;100.00
5455;BME280;2750;49.050;9.250;2023-02-03T16:01:58;99788.00;;;8.37;100.00
5455;BME280;2750;49.050;9.250;2023-02-03T16:07:00;99816.66;;;8.25;100.00
5455;BME280;2750;49.050;9.250;2023-02-03T16:12:04;99799.91;;;8.44;100.00
5455;BME280;2750;49.050;9.250;2023-02-03T16:17:21;99804.28;;;8.41;100.00
5455;BME280;2750;49.050;9.250;2023-02-03T16:22:27;99778.34;;;8.45;100.00
5455;BME280;2750;49.050;9.250;2023-02-03T16:27:32;99776.38;;;8.55;100.00
5455;BME280;2750;49.050;9.250;2023-02-03T16:32:35;99780.84;;;8.50;100.00
5455;BME280;2750;49.050;9.250;2023-02-03T16:37:54;99792.75;;;8.55;100.00
5455;BME280;2750;49.050;9.250;2023-02-03T16:43:15;99780.56;;;8.62;100.00
5455;BME280;2750;49.050;9.250;2023-02-03T16:48:35;99799.47;;;8.64;100.00
5455;BME280;2750;49.050;9.250;2023-02-03T16:53:54;99823.59;;;8.66;100.00
5455;BME280;2750;49.050;9.250;2023-02-03T16:58:56;99813.25;;;8.64;100.00
5455;BME280;2750;49.050;9.250;2023-02-03T17:03:58;99820.94;;;8.69;100.00
5455;BME280;2750;49.050;9.250;2023-02-03T17:09:00;99817.16;;;8.82;100.00
5455;BME280;2750;49.050;9.250;2023-02-03T17:14:01;99829.38;;;8.77;100.00
5455;BME280;2750;49.050;9.250;2023-02-03T17:19:05;99826.97;;;8.70;100.00
5455;BME280;2750;49.050;9.250;2023-02-03T17:24:06;99827.59;;;8.79;100.00
5455;BME280;2750;49.050;9.250;2023-02-03T17:29:08;99824.69;;;8.93;99.50
5455;BME280;2750;49.050;9.250;2023-02-03T17:34:11;99841.13;;;8.92;99.09
5455;BME280;2750;49.050;9.250;2023-02-03T17:39:13;99836.22;;;8.78;99.73
5455;BME280;2750;49.050;9.250;2023-02-03T17:44:14;99853.81;;;9.01;98.98
5455;BME280;2750;49.050;9.250;2023-02-03T17:49:17;99844.38;;;9.00;98.94
5455;BME280;2750;49.050;9.250;2023-02-03T17:54:19;99852.66;;;9.14;98.85
5455;BME280;2750;49.050;9.250;2023-02-03T17:59:20;99851.38;;;8.95;99.49
5455;BME280;2750;49.050;9.250;2023-02-03T18:04:23;99854.38;;;8.77;100.00
5455;BME280;2750;49.050;9.250;2023-02-03T18:09:25;99856.22;;;9.08;100.00
5455;BME280;2750;49.050;9.250;2023-02-03T18:14:27;99865.84;;;8.65;100.00
5455;BME280;2750;49.050;9.250;2023-02-03T18:19:29;99861.00;;;8.50;100.00
5455;BME280;2750;49.050;9.250;2023-02-03T18:24:31;99876.13;;;8.68;100.00
5455;BME280;2750;49.050;9.250;2023-02-03T18:29:32;99861.06;;;8.47;100.00
5455;BME280;2750;49.050;9.250;2023-02-03T18:34:36;99866.81;;;8.59;100.00
5455;BME280;2750;49.050;9.250;2023-02-03T18:39:37;99877.09;;;8.62;100.00
5455;BME280;2750;49.050;9.250;2023-02-03T18:44:39;99872.16;;;8.52;100.00
5455;BME280;2750;49.050;9.250;2023-02-03T18:49:44;99879.38;;;8.36;100.00
5455;BME280;2750;49.050;9.250;2023-02-03T18:54:47;99865.09;;;8.60;100.00
5455;BME280;2750;49.050;9.250;2023-02-03T18:59:50;99881.47;;;8.60;100.00
5455;BME280;2750;49.050;9.250;2023-02-03T19:04:53;99859.84;;;8.63;100.00
5455;BME280;2750;49.050;9.250;2023-02-03T19:09:55;99878.09;;;8.57;100.00
5455;BME280;2750;49.050;9.250;2023-02-03T19:14:56;99854.88;;;8.54;100.00
5455;BME280;2750;49.050;9.250;2023-02-03T19:19:59;99863.88;;;8.76;100.00
5455;BME280;2750;49.050;9.250;2023-02-03T19:25:02;99873.63;;;8.63;100.00
5455;BME280;2750;49.050;9.250;2023-02-03T19:30:04;99877.38;;;8.50;100.00
5455;BME280;2750;49.050;9.250;2023-02-03T19:35:07;99892.09;;;8.47;100.00
5455;BME280;2750;49.050;9.250;2023-02-03T19:40:09;99887.59;;;8.55;100.00
5455;BME280;2750;49.050;9.250;2023-02-03T19:45:11;99887.66;;;8.53;100.00
5455;BME280;2750;49.050;9.250;2023-02-03T19:50:14;99903.28;;;8.47;100.00
5455;BME280;2750;49.050;9.250;2023-02-03T19:55:16;99910.69;;;8.64;100.00
5455;BME280;2750;49.050;9.250;2023-02-03T20:00:18;99887.09;;;8.38;100.00
5455;BME280;2750;49.050;9.250;2023-02-03T20:05:22;99892.94;;;8.47;100.00
5455;BME280;2750;49.050;9.250;2023-02-03T20:10:23;99874.03;;;8.45;100.00
5455;BME280;2750;49.050;9.250;2023-02-03T20:15:26;99863.66;;;8.47;100.00
5455;BME280;2750;49.050;9.250;2023-02-03T20:20:29;99851.38;;;8.55;100.00
5455;BME280;2750;49.050;9.250;2023-02-03T20:25:30;99882.94;;;8.72;100.00
5455;BME280;2750;49.050;9.250;2023-02-03T20:30:31;99884.09;;;8.97;100.00
5455;BME280;2750;49.050;9.250;2023-02-03T20:35:34;99880.38;;;9.10;100.00
5455;BME280;2750;49.050;9.250;2023-02-03T20:40:37;99897.44;;;9.19;100.00
5455;BME280;2750;49.050;9.250;2023-02-03T20:45:40;99907.50;;;9.31;100.00
5455;BME280;2750;49.050;9.250;2023-02-03T20:50:43;99910.09;;;9.31;100.00
5455;BME280;2750;49.050;9.250;2023-02-03T20:55:46;99898.06;;;8.90;100.00
5455;BME280;2750;49.050;9.250;2023-02-03T21:00:48;99906.34;;;9.07;100.00
5455;BME280;2750;49.050;9.250;2023-02-03T21:05:51;99901.75;;;8.80;100.00
5455;BME280;2750;49.050;9.250;2023-02-03T21:10:53;99917.88;;;8.93;100.00
5455;BME280;2750;49.050;9.250;2023-02-03T21:15:56;99912.91;;;9.21;100.00
5455;BME280;2750;49.050;9.250;2023-02-03T21:21:00;99916.00;;;8.99;100.00
5455;BME280;2750;49.050;9.250;2023-02-03T21:26:14;99929.25;;;8.84;100.00
5455;BME280;2750;49.050;9.250;2023-02-03T21:31:22;99936.25;;;8.79;100.00
5455;BME280;2750;49.050;9.250;2023-02-03T21:36:30;99918.16;;;8.79;100.00
5455;BME280;2750;49.050;9.250;2023-02-03T21:41:32;99913.13;;;8.73;100.00
5455;BME280;2750;49.050;9.250;2023-02-03T21:46:34;99918.25;;;8.75;100.00
5455;BME280;2750;49.050;9.250;2023-02-03T21:51:38;99926.69;;;8.83;100.00
5455;BME280;2750;49.050;9.250;2023-02-03T21:56:41;99927.94;;;9.05;100.00
5455;BME280;2750;49.050;9.250;2023-02-03T22:01:44;99936.03;;;8.90;100.00
5455;BME280;2750;49.050;9.250;2023-02-03T22:06:48;99944.97;;;8.75;100.00
5455;BME280;2750;49.050;9.250;2023-02-03T22:11:52;99933.03;;;8.68;100.00
5455;BME280;2750;49.050;9.250;2023-02-03T22:16:54;99960.72;;;8.64;100.00
5455;BME280;2750;49.050;9.250;2023-02-03T22:21:56;99951.47;;;8.51;100.00
5455;BME280;2750;49.050;9.250;2023-02-03T22:26:58;99956.56;;;8.56;100.00
5455;BME280;2750;49.050;9.250;2023-02-03T22:31:59;99975.94;;;8.78;100.00
5455;BME280;2750;49.050;9.250;2023-02-03T22:37:02;99987.97;;;9.24;100.00
5455;BME280;2750;49.050;9.250;2023-02-03T22:42:04;100007.00;;;9.21;100.00
5455;BME280;2750;49.050;9.250;2023-02-03T22:47:06;100003.91;;;9.44;100.00
5455;BME280;2750;49.050;9.250;2023-02-03T22:52:09;99997.75;;;9.09;100.00
5455;BME280;2750;49.050;9.250;2023-02-03T22:57:10;100001.41;;;8.99;100.00
5455;BME280;2750;49.050;9.250;2023-02-03T23:02:12;99997.91;;;9.02;100.00
5455;BME280;2750;49.050;9.250;2023-02-03T23:07:15;99991.31;;;8.87;100.00
5455;BME280;2750;49.050;9.250;2023-02-03T23:12:16;99997.13;;;8.97;100.00
5455;BME280;2750;49.050;9.250;2023-02-03T23:17:17;99994.91;;;9.20;100.00
5455;BME280;2750;49.050;9.250;2023-02-03T23:22:20;99988.16;;;9.13;100.00
5455;BME280;2750;49.050;9.250;2023-02-03T23:27:22;99971.06;;;9.07;100.00
5455;BME280;2750;49.050;9.250;2023-02-03T23:32:23;99989.97;;;9.09;100.00
5455;BME280;2750;49.050;9.250;2023-02-03T23:37:26;99993.50;;;9.05;100.00
5455;BME280;2750;49.050;9.250;2023-02-03T23:42:28;100000.38;;;9.08;100.00
5455;BME280;2750;49.050;9.250;2023-02-03T23:47:29;99996.19;;;9.01;100.00
5455;BME280;2750;49.050;9.250;2023-02-03T23:52:32;100020.16;;;9.10;100.00
5455;BME280;2750;49.050;9.250;2023-02-03T23:57:35;100014.47;;;8.93;100.00
